sensor_id;sensor_type;location;lat;lon;timestamp;temperature;humidity
33093;DHT22;19456;46.104;12.908;2024-01-06T00:01:54;9.20;99.90
33093;DHT22;19456;46.104;12.908;2024-01-06T00:04:19;9.20;99.90
33093;DHT22;19456;46.104;12.908;2024-01-06T00:06:45;9.10;99.90
33093;DHT22;19456;46.104;12.908;2024-01-06T00:09:10;9.00;99.90
33093;DHT22;19456;46.104;12.908;2024-01-06T00:11:36;8.90;99.90
33093;DHT22;19456;46.104;12.908;2024-01-06T00:14:01;8.90;99.90
33093;DHT22;19456;46.104;12.908;2024-01-06T00:16:27;8.80;99.90
33093;DHT22;19456;46.104;12.908;2024-01-06T00:18:53;8.80;99.90
33093;DHT22;19456;46.104;12.908;2024-01-06T00:21:18;8.70;99.90
33093;DHT22;19456;46.104;12.908;2024-01-06T00:23:44;8.70;99.90
33093;DHT22;19456;46.104;12.908;2024-01-06T00:26:09;8.70;99.90
33093;DHT22;19456;46.104;12.908;2024-01-06T00:28:35;8.60;99.90
33093;DHT22;19456;46.104;12.908;2024-01-06T00:31:01;8.60;99.90
33093;DHT22;19456;46.104;12.908;2024-01-06T00:33:26;8.70;99.90
33093;DHT22;19456;46.104;12.908;2024-01-06T00:35:52;8.80;99.90
33093;DHT22;19456;46.104;12.908;2024-01-06T00:38:17;8.80;99.90
33093;DHT22;19456;46.104;12.908;2024-01-06T00:40:43;8.90;99.90
33093;DHT22;19456;46.104;12.908;2024-01-06T00:43:09;8.90;99.90
33093;DHT22;19456;46.104;12.908;2024-01-06T00:45:34;8.90;99.90
33093;DHT22;19456;46.104;12.908;2024-01-06T00:48:00;8.90;99.90
33093;DHT22;19456;46.104;12.908;2024-01-06T00:50:25;9.00;99.90
33093;DHT22;19456;46.104;12.908;2024-01-06T00:52:51;9.00;99.90
33093;DHT22;19456;46.104;12.908;2024-01-06T00:55:21;9.00;99.90
33093;DHT22;19456;46.104;12.908;2024-01-06T00:57:47;9.00;99.90
33093;DHT22;19456;46.104;12.908;2024-01-06T01:00:12;9.00;99.90
33093;DHT22;19456;46.104;12.908;2024-01-06T01:02:38;9.10;99.90
33093;DHT22;19456;46.104;12.908;2024-01-06T01:05:04;9.00;99.90
33093;DHT22;19456;46.104;12.908;2024-01-06T01:07:29;8.90;99.90
33093;DHT22;19456;46.104;12.908;2024-01-06T01:09:56;8.90;99.90
33093;DHT22;19456;46.104;12.908;2024-01-06T01:12:21;9.00;99.90
33093;DHT22;19456;46.104;12.908;2024-01-06T01:14:47;9.00;99.90
33093;DHT22;19456;46.104;12.908;2024-01-06T01:17:16;9.10;99.90
33093;DHT22;19456;46.104;12.908;2024-01-06T01:19:41;9.10;99.90
33093;DHT22;19456;46.104;12.908;2024-01-06T01:22:07;9.00;99.90
33093;DHT22;19456;46.104;12.908;2024-01-06T01:24:33;8.90;99.90
33093;DHT22;19456;46.104;12.908;2024-01-06T01:26:59;9.00;99.90
33093;DHT22;19456;46.104;12.908;2024-01-06T01:29:24;9.00;99.90
33093;DHT22;19456;46.104;12.908;2024-01-06T01:31:50;9.00;99.90
33093;DHT22;19456;46.104;12.908;2024-01-06T01:34:15;9.10;99.90
33093;DHT22;19456;46.104;12.908;2024-01-06T01:36:41;9.10;99.90
33093;DHT22;19456;46.104;12.908;2024-01-06T01:39:07;9.10;99.90
33093;DHT22;19456;46.104;12.908;2024-01-06T01:41:32;9.00;99.90
33093;DHT22;19456;46.104;12.908;2024-01-06T01:43:58;9.10;99.90
33093;DHT22;19456;46.104;12.908;2024-01-06T01:46:25;9.10;99.90
33093;DHT22;19456;46.104;12.908;2024-01-06T01:48:51;9.10;99.90
33093;DHT22;19456;46.104;12.908;2024-01-06T01:51:16;9.00;99.90
33093;DHT22;19456;46.104;12.908;2024-01-06T01:53:43;9.00;99.90
33093;DHT22;19456;46.104;12.908;2024-01-06T01:56:09;9.10;99.90
33093;DHT22;19456;46.104;12.908;2024-01-06T01:58:34;9.00;99.90
33093;DHT22;19456;46.104;12.908;2024-01-06T02:01:00;9.10;99.90
33093;DHT22;19456;46.104;12.908;2024-01-06T02:03:26;9.00;99.90
33093;DHT22;19456;46.104;12.908;2024-01-06T02:05:51;9.10;99.90
33093;DHT22;19456;46.104;12.908;2024-01-06T02:08:17;9.00;99.90
33093;DHT22;19456;46.104;12.908;2024-01-06T02:10:42;8.90;99.90
33093;DHT22;19456;46.104;12.908;2024-01-06T02:13:11;8.90;99.90
33093;DHT22;19456;46.104;12.908;2024-01-06T02:15:37;8.90;99.90
33093;DHT22;19456;46.104;12.908;2024-01-06T02:18:03;8.90;99.90
33093;DHT22;19456;46.104;12.908;2024-01-06T02:20:31;8.90;99.90
33093;DHT22;19456;46.104;12.908;2024-01-06T02:22:57;8.90;99.90
33093;DHT22;19456;46.104;12.908;2024-01-06T02:25:24;8.90;99.90
33093;DHT22;19456;46.104;12.908;2024-01-06T02:27:50;8.90;99.90
33093;DHT22;19456;46.104;12.908;2024-01-06T02:30:15;8.90;99.90
33093;DHT22;19456;46.104;12.908;2024-01-06T02:32:41;8.80;99.90
33093;DHT22;19456;46.104;12.908;2024-01-06T02:35:07;8.80;99.90
33093;DHT22;19456;46.104;12.908;2024-01-06T02:37:32;8.80;99.90
33093;DHT22;19456;46.104;12.908;2024-01-06T02:39:58;8.80;99.90
33093;DHT22;19456;46.104;12.908;2024-01-06T02:42:23;8.80;99.90
33093;DHT22;19456;46.104;12.908;2024-01-06T02:44:50;8.80;99.90
33093;DHT22;19456;46.104;12.908;2024-01-06T02:47:16;8.80;99.90
33093;DHT22;19456;46.104;12.908;2024-01-06T02:49:41;8.90;99.90
33093;DHT22;19456;46.104;12.908;2024-01-06T02:52:07;8.90;99.90
33093;DHT22;19456;46.104;12.908;2024-01-06T02:54:32;8.90;99.90
33093;DHT22;19456;46.104;12.908;2024-01-06T02:56:58;8.80;99.90
33093;DHT22;19456;46.104;12.908;2024-01-06T02:59:24;8.80;99.90
33093;DHT22;19456;46.104;12.908;2024-01-06T03:01:49;8.80;99.90
33093;DHT22;19456;46.104;12.908;2024-01-06T03:04:15;8.80;99.90
33093;DHT22;19456;46.104;12.908;2024-01-06T03:06:40;8.70;99.90
33093;DHT22;19456;46.104;12.908;2024-01-06T03:09:06;8.70;99.90
33093;DHT22;19456;46.104;12.908;2024-01-06T03:11:31;8.70;99.90
33093;DHT22;19456;46.104;12.908;2024-01-06T03:13:57;8.60;99.90
33093;DHT22;19456;46.104;12.908;2024-01-06T03:16:22;8.70;99.90
33093;DHT22;19456;46.104;12.908;2024-01-06T03:18:48;8.70;99.90
33093;DHT22;19456;46.104;12.908;2024-01-06T03:21:20;8.70;99.90
33093;DHT22;19456;46.104;12.908;2024-01-06T03:23:46;8.70;99.90
33093;DHT22;19456;46.104;12.908;2024-01-06T03:26:12;8.70;99.90
33093;DHT22;19456;46.104;12.908;2024-01-06T03:28:37;8.70;99.90
33093;DHT22;19456;46.104;12.908;2024-01-06T03:31:03;8.60;99.90
33093;DHT22;19456;46.104;12.908;2024-01-06T03:33:28;8.70;99.90
33093;DHT22;19456;46.104;12.908;2024-01-06T03:35:54;8.70;99.90
33093;DHT22;19456;46.104;12.908;2024-01-06T03:38:19;8.70;99.90
33093;DHT22;19456;46.104;12.908;2024-01-06T03:40:45;8.70;99.90
33093;DHT22;19456;46.104;12.908;2024-01-06T03:43:10;8.80;99.90
33093;DHT22;19456;46.104;12.908;2024-01-06T03:45:40;8.80;99.90
33093;DHT22;19456;46.104;12.908;2024-01-06T03:48:06;8.80;99.90
33093;DHT22;19456;46.104;12.908;2024-01-06T03:50:32;8.80;99.90
33093;DHT22;19456;46.104;12.908;2024-01-06T03:52:57;8.80;99.90
33093;DHT22;19456;46.104;12.908;2024-01-06T03:55:23;8.80;99.90
33093;DHT22;19456;46.104;12.908;2024-01-06T03:57:48;8.70;99.90
33093;DHT22;19456;46.104;12.908;2024-01-06T04:00:14;8.80;99.90
33093;DHT22;19456;46.104;12.908;2024-01-06T04:02:40;8.70;99.90
33093;DHT22;19456;46.104;12.908;2024-01-06T04:05:05;8.60;99.90
33093;DHT22;19456;46.104;12.908;2024-01-06T04:07:31;8.60;99.90
33093;DHT22;19456;46.104;12.908;2024-01-06T04:09:56;8.70;99.90
33093;DHT22;19456;46.104;12.908;2024-01-06T04:12:22;8.60;99.90
33093;DHT22;19456;46.104;12.908;2024-01-06T04:14:48;8.60;99.90
33093;DHT22;19456;46.104;12.908;2024-01-06T04:17:13;8.60;99.90
33093;DHT22;19456;46.104;12.908;2024-01-06T04:19:39;8.70;99.90
33093;DHT22;19456;46.104;12.908;2024-01-06T04:22:04;8.70;99.90
33093;DHT22;19456;46.104;12.908;2024-01-06T04:24:30;8.70;99.90
33093;DHT22;19456;46.104;12.908;2024-01-06T04:26:56;8.80;99.90
33093;DHT22;19456;46.104;12.908;2024-01-06T04:29:21;8.70;99.90
33093;DHT22;19456;46.104;12.908;2024-01-06T04:31:47;8.60;99.90
33093;DHT22;19456;46.104;12.908;2024-01-06T04:34:12;8.60;99.90
33093;DHT22;19456;46.104;12.908;2024-01-06T04:36:38;8.70;99.90
33093;DHT22;19456;46.104;12.908;2024-01-06T04:39:03;8.70;99.90
33093;DHT22;19456;46.104;12.908;2024-01-06T04:41:29;8.60;99.90
33093;DHT22;19456;46.104;12.908;2024-01-06T04:43:55;8.60;99.90
33093;DHT22;19456;46.104;12.908;2024-01-06T04:46:20;8.60;99.90
33093;DHT22;19456;46.104;12.908;2024-01-06T04:48:46;8.50;99.90
33093;DHT22;19456;46.104;12.908;2024-01-06T04:51:12;8.50;99.90
33093;DHT22;19456;46.104;12.908;2024-01-06T04:53:37;8.50;99.90
33093;DHT22;19456;46.104;12.908;2024-01-06T04:56:03;8.60;99.90
33093;DHT22;19456;46.104;12.908;2024-01-06T04:58:29;8.60;99.90
33093;DHT22;19456;46.104;12.908;2024-01-06T05:00:54;8.60;99.90
33093;DHT22;19456;46.104;12.908;2024-01-06T05:03:20;8.50;99.90
33093;DHT22;19456;46.104;12.908;2024-01-06T05:05:45;8.60;99.90
33093;DHT22;19456;46.104;12.908;2024-01-06T05:08:11;8.60;99.90
33093;DHT22;19456;46.104;12.908;2024-01-06T05:10:37;8.70;99.90
33093;DHT22;19456;46.104;12.908;2024-01-06T05:13:02;8.70;99.90
33093;DHT22;19456;46.104;12.908;2024-01-06T05:15:28;8.70;99.90
33093;DHT22;19456;46.104;12.908;2024-01-06T05:17:53;8.70;99.90
33093;DHT22;19456;46.104;12.908;2024-01-06T05:20:19;8.70;99.90
33093;DHT22;19456;46.104;12.908;2024-01-06T05:22:45;8.70;99.90
33093;DHT22;19456;46.104;12.908;2024-01-06T05:25:10;8.70;99.90
33093;DHT22;19456;46.104;12.908;2024-01-06T05:27:36;8.70;99.90
33093;DHT22;19456;46.104;12.908;2024-01-06T05:30:02;8.70;99.90
33093;DHT22;19456;46.104;12.908;2024-01-06T05:32:27;8.70;99.90
33093;DHT22;19456;46.104;12.908;2024-01-06T05:34:53;8.70;99.90
33093;DHT22;19456;46.104;12.908;2024-01-06T05:37:18;8.60;99.90
33093;DHT22;19456;46.104;12.908;2024-01-06T05:39:44;8.60;99.90
33093;DHT22;19456;46.104;12.908;2024-01-06T05:42:09;8.60;99.90
33093;DHT22;19456;46.104;12.908;2024-01-06T05:44:38;8.60;99.90
33093;DHT22;19456;46.104;12.908;2024-01-06T05:47:04;8.50;99.90
33093;DHT22;19456;46.104;12.908;2024-01-06T05:49:29;8.40;99.90
33093;DHT22;19456;46.104;12.908;2024-01-06T05:51:55;8.40;99.90
33093;DHT22;19456;46.104;12.908;2024-01-06T05:54:21;8.40;99.90
33093;DHT22;19456;46.104;12.908;2024-01-06T05:56:46;8.40;99.90
33093;DHT22;19456;46.104;12.908;2024-01-06T05:59:15;8.40;99.90
33093;DHT22;19456;46.104;12.908;2024-01-06T06:01:41;8.50;99.90
33093;DHT22;19456;46.104;12.908;2024-01-06T06:04:06;8.40;99.90
33093;DHT22;19456;46.104;12.908;2024-01-06T06:06:32;8.40;99.90
33093;DHT22;19456;46.104;12.908;2024-01-06T06:08:58;8.40;99.90
33093;DHT22;19456;46.104;12.908;2024-01-06T06:11:23;8.40;99.90
33093;DHT22;19456;46.104;12.908;2024-01-06T06:13:49;8.50;99.90
33093;DHT22;19456;46.104;12.908;2024-01-06T06:16:14;8.50;99.90
33093;DHT22;19456;46.104;12.908;2024-01-06T06:18:40;8.60;99.90
33093;DHT22;19456;46.104;12.908;2024-01-06T06:21:06;8.60;99.90
33093;DHT22;19456;46.104;12.908;2024-01-06T06:23:33;8.60;99.90
33093;DHT22;19456;46.104;12.908;2024-01-06T06:25:58;8.60;99.90
33093;DHT22;19456;46.104;12.908;2024-01-06T06:28:25;8.60;99.90
33093;DHT22;19456;46.104;12.908;2024-01-06T06:30:51;8.60;99.90
33093;DHT22;19456;46.104;12.908;2024-01-06T06:33:16;8.70;99.90
33093;DHT22;19456;46.104;12.908;2024-01-06T06:35:42;8.60;99.90
33093;DHT22;19456;46.104;12.908;2024-01-06T06:38:08;8.60;99.90
33093;DHT22;19456;46.104;12.908;2024-01-06T06:40:33;8.60;99.90
33093;DHT22;19456;46.104;12.908;2024-01-06T06:42:59;8.70;99.90
33093;DHT22;19456;46.104;12.908;2024-01-06T06:45:24;8.60;99.90
33093;DHT22;19456;46.104;12.908;2024-01-06T06:47:50;8.60;99.90
33093;DHT22;19456;46.104;12.908;2024-01-06T06:50:16;8.60;99.90
33093;DHT22;19456;46.104;12.908;2024-01-06T06:52:42;8.60;99.90
33093;DHT22;19456;46.104;12.908;2024-01-06T06:55:07;8.60;99.90
33093;DHT22;19456;46.104;12.908;2024-01-06T06:57:33;8.50;99.90
33093;DHT22;19456;46.104;12.908;2024-01-06T06:59:59;8.50;99.90
33093;DHT22;19456;46.104;12.908;2024-01-06T07:02:25;8.50;99.90
33093;DHT22;19456;46.104;12.908;2024-01-06T07:04:51;8.60;99.90
33093;DHT22;19456;46.104;12.908;2024-01-06T07:07:17;8.60;99.90
33093;DHT22;19456;46.104;12.908;2024-01-06T07:09:42;8.50;99.90
33093;DHT22;19456;46.104;12.908;2024-01-06T07:12:08;8.60;99.90
33093;DHT22;19456;46.104;12.908;2024-01-06T07:14:33;8.60;99.90
33093;DHT22;19456;46.104;12.908;2024-01-06T07:16:59;8.70;99.90
33093;DHT22;19456;46.104;12.908;2024-01-06T07:19:25;8.70;99.90
33093;DHT22;19456;46.104;12.908;2024-01-06T07:21:50;8.70;99.90
33093;DHT22;19456;46.104;12.908;2024-01-06T07:24:16;8.70;99.90
33093;DHT22;19456;46.104;12.908;2024-01-06T07:26:41;8.70;99.90
33093;DHT22;19456;46.104;12.908;2024-01-06T07:29:07;8.70;99.90
33093;DHT22;19456;46.104;12.908;2024-01-06T07:31:33;8.70;99.90
33093;DHT22;19456;46.104;12.908;2024-01-06T07:33:59;8.70;99.90
33093;DHT22;19456;46.104;12.908;2024-01-06T07:36:25;8.70;99.90
33093;DHT22;19456;46.104;12.908;2024-01-06T07:38:50;8.70;99.90
33093;DHT22;19456;46.104;12.908;2024-01-06T07:41:17;8.80;99.90
33093;DHT22;19456;46.104;12.908;2024-01-06T07:43:43;8.80;99.90
33093;DHT22;19456;46.104;12.908;2024-01-06T07:46:08;8.80;99.90
33093;DHT22;19456;46.104;12.908;2024-01-06T07:48:35;8.80;99.90
33093;DHT22;19456;46.104;12.908;2024-01-06T07:51:01;8.80;99.90
33093;DHT22;19456;46.104;12.908;2024-01-06T07:53:28;8.70;99.90
33093;DHT22;19456;46.104;12.908;2024-01-06T07:55:54;8.70;99.90
33093;DHT22;19456;46.104;12.908;2024-01-06T07:58:20;8.70;99.90
33093;DHT22;19456;46.104;12.908;2024-01-06T08:00:47;8.70;99.90
33093;DHT22;19456;46.104;12.908;2024-01-06T08:03:12;8.70;99.90
33093;DHT22;19456;46.104;12.908;2024-01-06T08:05:38;8.70;99.90
33093;DHT22;19456;46.104;12.908;2024-01-06T08:08:04;8.70;99.90
33093;DHT22;19456;46.104;12.908;2024-01-06T08:10:30;8.70;99.90
33093;DHT22;19456;46.104;12.908;2024-01-06T08:12:56;8.70;99.90
33093;DHT22;19456;46.104;12.908;2024-01-06T08:15:22;8.70;99.90
33093;DHT22;19456;46.104;12.908;2024-01-06T08:17:47;8.80;99.90
33093;DHT22;19456;46.104;12.908;2024-01-06T08:20:13;8.80;99.90
33093;DHT22;19456;46.104;12.908;2024-01-06T08:22:39;8.80;99.90
33093;DHT22;19456;46.104;12.908;2024-01-06T08:25:05;8.90;99.90
33093;DHT22;19456;46.104;12.908;2024-01-06T08:27:33;8.90;99.90
33093;DHT22;19456;46.104;12.908;2024-01-06T08:29:59;9.00;99.90
33093;DHT22;19456;46.104;12.908;2024-01-06T08:32:25;9.00;99.90
33093;DHT22;19456;46.104;12.908;2024-01-06T08:34:50;9.00;99.90
33093;DHT22;19456;46.104;12.908;2024-01-06T08:37:16;9.10;99.90
33093;DHT22;19456;46.104;12.908;2024-01-06T08:39:41;9.10;99.90
33093;DHT22;19456;46.104;12.908;2024-01-06T08:42:07;9.10;99.90
33093;DHT22;19456;46.104;12.908;2024-01-06T08:44:32;9.10;99.90
33093;DHT22;19456;46.104;12.908;2024-01-06T08:46:58;9.10;99.90
33093;DHT22;19456;46.104;12.908;2024-01-06T08:49:23;9.10;99.90
33093;DHT22;19456;46.104;12.908;2024-01-06T08:51:49;9.10;99.90
33093;DHT22;19456;46.104;12.908;2024-01-06T08:54:15;9.10;99.90
33093;DHT22;19456;46.104;12.908;2024-01-06T08:56:41;9.10;99.90
33093;DHT22;19456;46.104;12.908;2024-01-06T08:59:06;9.00;99.90
33093;DHT22;19456;46.104;12.908;2024-01-06T09:01:32;9.00;99.90
33093;DHT22;19456;46.104;12.908;2024-01-06T09:03:59;8.90;99.90
33093;DHT22;19456;46.104;12.908;2024-01-06T09:06:25;8.80;99.90
33093;DHT22;19456;46.104;12.908;2024-01-06T09:08:50;8.80;99.90
33093;DHT22;19456;46.104;12.908;2024-01-06T09:11:16;8.90;99.90
33093;DHT22;19456;46.104;12.908;2024-01-06T09:13:41;8.90;99.90
33093;DHT22;19456;46.104;12.908;2024-01-06T09:16:07;8.90;99.90
33093;DHT22;19456;46.104;12.908;2024-01-06T09:18:32;8.80;99.90
33093;DHT22;19456;46.104;12.908;2024-01-06T09:20:58;8.80;99.90
33093;DHT22;19456;46.104;12.908;2024-01-06T09:23:24;8.80;99.90
33093;DHT22;19456;46.104;12.908;2024-01-06T09:25:49;8.80;99.90
33093;DHT22;19456;46.104;12.908;2024-01-06T09:28:17;8.70;99.90
33093;DHT22;19456;46.104;12.908;2024-01-06T09:30:42;8.70;99.90
33093;DHT22;19456;46.104;12.908;2024-01-06T09:33:08;8.70;99.90
33093;DHT22;19456;46.104;12.908;2024-01-06T09:35:34;8.70;99.90
33093;DHT22;19456;46.104;12.908;2024-01-06T09:38:00;8.70;99.90
33093;DHT22;19456;46.104;12.908;2024-01-06T09:40:25;8.80;99.90
33093;DHT22;19456;46.104;12.908;2024-01-06T09:42:51;8.80;99.90
33093;DHT22;19456;46.104;12.908;2024-01-06T09:45:17;8.80;99.90
33093;DHT22;19456;46.104;12.908;2024-01-06T09:47:43;8.80;99.90
33093;DHT22;19456;46.104;12.908;2024-01-06T09:50:12;8.80;99.90
33093;DHT22;19456;46.104;12.908;2024-01-06T09:52:39;8.90;99.90
33093;DHT22;19456;46.104;12.908;2024-01-06T09:55:06;8.90;99.90
33093;DHT22;19456;46.104;12.908;2024-01-06T09:57:35;8.90;99.90
33093;DHT22;19456;46.104;12.908;2024-01-06T10:00:00;8.90;99.90
33093;DHT22;19456;46.104;12.908;2024-01-06T10:02:26;8.90;99.90
33093;DHT22;19456;46.104;12.908;2024-01-06T10:04:52;9.00;99.90
33093;DHT22;19456;46.104;12.908;2024-01-06T10:07:17;9.10;99.90
33093;DHT22;19456;46.104;12.908;2024-01-06T10:09:43;9.10;99.90
33093;DHT22;19456;46.104;12.908;2024-01-06T10:12:08;9.00;99.90
33093;DHT22;19456;46.104;12.908;2024-01-06T10:14:35;9.10;99.90
33093;DHT22;19456;46.104;12.908;2024-01-06T10:17:01;9.10;99.90
33093;DHT22;19456;46.104;12.908;2024-01-06T10:19:27;9.10;99.90
33093;DHT22;19456;46.104;12.908;2024-01-06T10:21:52;9.10;99.90
33093;DHT22;19456;46.104;12.908;2024-01-06T10:24:18;9.10;99.90
33093;DHT22;19456;46.104;12.908;2024-01-06T10:26:46;9.10;99.90
33093;DHT22;19456;46.104;12.908;2024-01-06T10:29:15;9.10;99.90
33093;DHT22;19456;46.104;12.908;2024-01-06T10:31:41;9.10;99.90
33093;DHT22;19456;46.104;12.908;2024-01-06T10:34:06;9.20;99.90
33093;DHT22;19456;46.104;12.908;2024-01-06T10:36:32;9.20;99.90
33093;DHT22;19456;46.104;12.908;2024-01-06T10:38:57;9.20;99.90
33093;DHT22;19456;46.104;12.908;2024-01-06T10:41:23;9.30;99.90
33093;DHT22;19456;46.104;12.908;2024-01-06T10:43:49;9.30;99.90
33093;DHT22;19456;46.104;12.908;2024-01-06T10:46:16;9.30;99.90
33093;DHT22;19456;46.104;12.908;2024-01-06T10:48:43;9.30;99.90
33093;DHT22;19456;46.104;12.908;2024-01-06T10:51:13;9.30;99.90
33093;DHT22;19456;46.104;12.908;2024-01-06T10:53:40;9.40;99.90
33093;DHT22;19456;46.104;12.908;2024-01-06T10:56:06;9.40;99.90
33093;DHT22;19456;46.104;12.908;2024-01-06T10:58:45;9.40;99.90
33093;DHT22;19456;46.104;12.908;2024-01-06T11:01:12;9.40;99.90
33093;DHT22;19456;46.104;12.908;2024-01-06T11:03:38;9.30;99.90
33093;DHT22;19456;46.104;12.908;2024-01-06T11:06:04;9.40;99.90
33093;DHT22;19456;46.104;12.908;2024-01-06T11:08:30;9.40;99.90
33093;DHT22;19456;46.104;12.908;2024-01-06T11:10:57;9.50;99.90
33093;DHT22;19456;46.104;12.908;2024-01-06T11:13:23;9.50;99.90
33093;DHT22;19456;46.104;12.908;2024-01-06T11:15:50;9.60;99.90
33093;DHT22;19456;46.104;12.908;2024-01-06T11:23:37;9.60;99.90
33093;DHT22;19456;46.104;12.908;2024-01-06T11:26:03;9.60;99.90
33093;DHT22;19456;46.104;12.908;2024-01-06T11:28:30;9.60;99.90
33093;DHT22;19456;46.104;12.908;2024-01-06T11:31:09;9.60;99.90
33093;DHT22;19456;46.104;12.908;2024-01-06T11:33:40;9.60;99.90
33093;DHT22;19456;46.104;12.908;2024-01-06T11:36:08;9.60;99.90
33093;DHT22;19456;46.104;12.908;2024-01-06T11:38:37;9.50;99.90
33093;DHT22;19456;46.104;12.908;2024-01-06T11:41:02;9.50;99.90
33093;DHT22;19456;46.104;12.908;2024-01-06T11:43:28;9.50;99.90
33093;DHT22;19456;46.104;12.908;2024-01-06T11:45:54;9.50;99.90
33093;DHT22;19456;46.104;12.908;2024-01-06T11:48:21;9.60;99.90
33093;DHT22;19456;46.104;12.908;2024-01-06T11:50:48;9.50;99.90
33093;DHT22;19456;46.104;12.908;2024-01-06T11:53:15;9.50;99.90
33093;DHT22;19456;46.104;12.908;2024-01-06T11:55:40;9.50;99.90
33093;DHT22;19456;46.104;12.908;2024-01-06T11:58:07;9.50;99.90
33093;DHT22;19456;46.104;12.908;2024-01-06T12:00:33;9.50;99.90
33093;DHT22;19456;46.104;12.908;2024-01-06T12:02:59;9.50;99.90
33093;DHT22;19456;46.104;12.908;2024-01-06T12:05:26;9.50;99.90
33093;DHT22;19456;46.104;12.908;2024-01-06T12:07:53;9.50;99.90
33093;DHT22;19456;46.104;12.908;2024-01-06T12:10:22;9.50;99.90
33093;DHT22;19456;46.104;12.908;2024-01-06T12:13:01;9.60;99.90
33093;DHT22;19456;46.104;12.908;2024-01-06T12:15:28;9.60;99.90
33093;DHT22;19456;46.104;12.908;2024-01-06T12:17:54;9.70;99.90
33093;DHT22;19456;46.104;12.908;2024-01-06T12:20:21;9.70;99.90
33093;DHT22;19456;46.104;12.908;2024-01-06T12:22:46;9.80;99.90
33093;DHT22;19456;46.104;12.908;2024-01-06T12:25:12;9.80;99.90
33093;DHT22;19456;46.104;12.908;2024-01-06T12:27:44;9.80;99.90
33093;DHT22;19456;46.104;12.908;2024-01-06T12:30:16;9.80;99.90
33093;DHT22;19456;46.104;12.908;2024-01-06T12:32:44;9.80;99.90
33093;DHT22;19456;46.104;12.908;2024-01-06T12:35:10;9.80;99.90
33093;DHT22;19456;46.104;12.908;2024-01-06T12:37:37;9.80;99.90
33093;DHT22;19456;46.104;12.908;2024-01-06T12:40:03;9.80;99.90
33093;DHT22;19456;46.104;12.908;2024-01-06T12:42:28;9.70;99.90
33093;DHT22;19456;46.104;12.908;2024-01-06T12:44:54;9.70;99.90
33093;DHT22;19456;46.104;12.908;2024-01-06T12:47:19;9.80;99.90
33093;DHT22;19456;46.104;12.908;2024-01-06T12:49:45;9.90;99.90
33093;DHT22;19456;46.104;12.908;2024-01-06T12:52:11;9.90;99.90
33093;DHT22;19456;46.104;12.908;2024-01-06T12:54:37;9.90;99.90
33093;DHT22;19456;46.104;12.908;2024-01-06T12:57:03;9.90;99.90
33093;DHT22;19456;46.104;12.908;2024-01-06T12:59:28;9.90;99.90
33093;DHT22;19456;46.104;12.908;2024-01-06T13:01:55;9.90;99.90
33093;DHT22;19456;46.104;12.908;2024-01-06T13:04:21;9.90;99.90
33093;DHT22;19456;46.104;12.908;2024-01-06T13:06:47;9.90;99.90
33093;DHT22;19456;46.104;12.908;2024-01-06T13:09:14;9.90;99.90
33093;DHT22;19456;46.104;12.908;2024-01-06T13:11:41;9.90;99.90
33093;DHT22;19456;46.104;12.908;2024-01-06T13:14:07;9.90;99.90
33093;DHT22;19456;46.104;12.908;2024-01-06T13:16:33;9.80;99.90
33093;DHT22;19456;46.104;12.908;2024-01-06T13:18:59;9.70;99.90
33093;DHT22;19456;46.104;12.908;2024-01-06T13:21:24;9.60;99.90
33093;DHT22;19456;46.104;12.908;2024-01-06T13:23:50;9.50;99.90
33093;DHT22;19456;46.104;12.908;2024-01-06T13:26:16;9.50;99.90
33093;DHT22;19456;46.104;12.908;2024-01-06T13:28:41;9.30;99.90
33093;DHT22;19456;46.104;12.908;2024-01-06T13:31:07;9.40;99.90
33093;DHT22;19456;46.104;12.908;2024-01-06T13:33:33;9.40;99.90
33093;DHT22;19456;46.104;12.908;2024-01-06T13:35:59;9.50;99.90
33093;DHT22;19456;46.104;12.908;2024-01-06T13:38:24;9.50;99.90
33093;DHT22;19456;46.104;12.908;2024-01-06T13:40:51;9.50;99.90
33093;DHT22;19456;46.104;12.908;2024-01-06T13:43:17;9.60;99.90
33093;DHT22;19456;46.104;12.908;2024-01-06T13:45:43;9.50;99.90
33093;DHT22;19456;46.104;12.908;2024-01-06T13:48:12;9.40;99.90
33093;DHT22;19456;46.104;12.908;2024-01-06T13:50:38;9.40;99.90
33093;DHT22;19456;46.104;12.908;2024-01-06T13:53:04;9.50;99.90
33093;DHT22;19456;46.104;12.908;2024-01-06T13:55:32;9.50;99.90
33093;DHT22;19456;46.104;12.908;2024-01-06T13:57:58;9.50;99.90
33093;DHT22;19456;46.104;12.908;2024-01-06T14:00:24;9.50;99.90
33093;DHT22;19456;46.104;12.908;2024-01-06T14:02:51;9.60;99.90
33093;DHT22;19456;46.104;12.908;2024-01-06T14:05:16;9.60;99.90
33093;DHT22;19456;46.104;12.908;2024-01-06T14:07:44;9.60;99.90
33093;DHT22;19456;46.104;12.908;2024-01-06T14:10:11;9.50;99.90
33093;DHT22;19456;46.104;12.908;2024-01-06T14:12:37;9.50;99.90
33093;DHT22;19456;46.104;12.908;2024-01-06T14:15:03;9.30;99.90
33093;DHT22;19456;46.104;12.908;2024-01-06T14:17:28;9.30;99.90
33093;DHT22;19456;46.104;12.908;2024-01-06T14:19:54;9.30;99.90
33093;DHT22;19456;46.104;12.908;2024-01-06T14:22:20;9.40;99.90
33093;DHT22;19456;46.104;12.908;2024-01-06T14:24:45;9.40;99.90
33093;DHT22;19456;46.104;12.908;2024-01-06T14:27:11;9.40;99.90
33093;DHT22;19456;46.104;12.908;2024-01-06T14:29:37;9.40;99.90
33093;DHT22;19456;46.104;12.908;2024-01-06T14:32:05;9.30;99.90
33093;DHT22;19456;46.104;12.908;2024-01-06T14:34:31;9.30;99.90
33093;DHT22;19456;46.104;12.908;2024-01-06T14:36:56;9.20;99.90
33093;DHT22;19456;46.104;12.908;2024-01-06T14:39:22;9.30;99.90
33093;DHT22;19456;46.104;12.908;2024-01-06T14:41:48;9.30;99.90
33093;DHT22;19456;46.104;12.908;2024-01-06T14:44:14;9.20;99.90
33093;DHT22;19456;46.104;12.908;2024-01-06T14:46:40;9.10;99.90
33093;DHT22;19456;46.104;12.908;2024-01-06T14:49:09;9.10;99.90
33093;DHT22;19456;46.104;12.908;2024-01-06T14:51:36;9.10;99.90
33093;DHT22;19456;46.104;12.908;2024-01-06T14:54:01;9.10;99.90
33093;DHT22;19456;46.104;12.908;2024-01-06T14:56:27;9.20;99.90
33093;DHT22;19456;46.104;12.908;2024-01-06T14:58:53;9.20;99.90
33093;DHT22;19456;46.104;12.908;2024-01-06T15:01:18;9.20;99.90
33093;DHT22;19456;46.104;12.908;2024-01-06T15:03:44;9.20;99.90
33093;DHT22;19456;46.104;12.908;2024-01-06T15:06:09;9.20;99.90
33093;DHT22;19456;46.104;12.908;2024-01-06T15:08:35;9.20;99.90
33093;DHT22;19456;46.104;12.908;2024-01-06T15:11:03;9.10;99.90
33093;DHT22;19456;46.104;12.908;2024-01-06T15:13:29;9.20;99.90
33093;DHT22;19456;46.104;12.908;2024-01-06T15:15:56;9.20;99.90
33093;DHT22;19456;46.104;12.908;2024-01-06T15:18:21;9.10;99.90
33093;DHT22;19456;46.104;12.908;2024-01-06T15:20:48;9.10;99.90
33093;DHT22;19456;46.104;12.908;2024-01-06T15:23:14;9.10;99.90
33093;DHT22;19456;46.104;12.908;2024-01-06T15:25:40;9.10;99.90
33093;DHT22;19456;46.104;12.908;2024-01-06T15:28:07;9.00;99.90